sensor_id;sensor_type;location;lat;lon;timestamp;pressure;altitude;pressure_sealevel;temperature;humidity
58072;BME280;60383;46.626;18.866;2023-03-05T00:01:19;100328.50;;;3.27;62.92
58072;BME280;60383;46.626;18.866;2023-03-05T00:03:47;100331.75;;;3.32;62.26
58072;BME280;60383;46.626;18.866;2023-03-05T00:06:13;100329.91;;;3.19;62.92
58072;BME280;60383;46.626;18.866;2023-03-05T00:08:39;100332.41;;;3.23;62.67
58072;BME280;60383;46.626;18.866;2023-03-05T00:11:07;100332.88;;;3.16;62.99
58072;BME280;60383;46.626;18.866;2023-03-05T00:13:33;100335.19;;;2.97;63.60
58072;BME280;60383;46.626;18.866;2023-03-05T00:16:05;100335.63;;;2.91;64.14
58072;BME280;60383;46.626;18.866;2023-03-05T00:18:31;100331.84;;;2.93;64.00
58072;BME280;60383;46.626;18.866;2023-03-05T00:20:57;100319.66;;;3.12;62.98
58072;BME280;60383;46.626;18.866;2023-03-05T00:23:22;100327.41;;;2.79;63.70
58072;BME280;60383;46.626;18.866;2023-03-05T00:25:48;100322.66;;;2.70;64.49
58072;BME280;60383;46.626;18.866;2023-03-05T00:28:13;100321.25;;;2.64;64.68
58072;BME280;60383;46.626;18.866;2023-03-05T00:30:39;100320.19;;;2.54;64.70
58072;BME280;60383;46.626;18.866;2023-03-05T00:33:06;100320.81;;;2.83;64.60
58072;BME280;60383;46.626;18.866;2023-03-05T00:35:38;100323.44;;;2.59;64.49
58072;BME280;60383;46.626;18.866;2023-03-05T00:38:03;100321.69;;;2.58;64.54
58072;BME280;60383;46.626;18.866;2023-03-05T00:40:29;100319.31;;;2.53;65.02
58072;BME280;60383;46.626;18.866;2023-03-05T00:42:55;100319.19;;;2.55;65.18
58072;BME280;60383;46.626;18.866;2023-03-05T00:45:21;100319.66;;;2.36;65.55
58072;BME280;60383;46.626;18.866;2023-03-05T00:47:46;100317.56;;;2.52;65.68
58072;BME280;60383;46.626;18.866;2023-03-05T00:50:12;100322.00;;;2.40;65.74
58072;BME280;60383;46.626;18.866;2023-03-05T00:52:37;100320.63;;;2.35;65.80
58072;BME280;60383;46.626;18.866;2023-03-05T00:55:03;100324.84;;;2.52;65.97
58072;BME280;60383;46.626;18.866;2023-03-05T00:57:29;100311.84;;;2.31;66.17
58072;BME280;60383;46.626;18.866;2023-03-05T00:59:54;100317.25;;;2.44;65.82
58072;BME280;60383;46.626;18.866;2023-03-05T01:02:19;100311.50;;;2.75;64.78
58072;BME280;60383;46.626;18.866;2023-03-05T01:04:45;100309.31;;;2.93;63.98
58072;BME280;60383;46.626;18.866;2023-03-05T01:07:11;100317.22;;;2.83;64.12
58072;BME280;60383;46.626;18.866;2023-03-05T01:09:37;100305.13;;;2.76;64.80
58072;BME280;60383;46.626;18.866;2023-03-05T01:12:02;100299.97;;;2.47;65.27
58072;BME280;60383;46.626;18.866;2023-03-05T01:14:28;100302.44;;;2.50;65.58
58072;BME280;60383;46.626;18.866;2023-03-05T01:16:54;100297.88;;;2.24;65.80
58072;BME280;60383;46.626;18.866;2023-03-05T01:19:19;100296.78;;;1.88;66.77
58072;BME280;60383;46.626;18.866;2023-03-05T01:21:44;100294.81;;;1.90;67.40
58072;BME280;60383;46.626;18.866;2023-03-05T01:24:10;100305.44;;;1.94;67.61
58072;BME280;60383;46.626;18.866;2023-03-05T01:26:36;100305.66;;;2.03;67.34
58072;BME280;60383;46.626;18.866;2023-03-05T01:29:02;100305.00;;;2.00;67.19
58072;BME280;60383;46.626;18.866;2023-03-05T01:31:27;100298.84;;;2.11;66.90
58072;BME280;60383;46.626;18.866;2023-03-05T01:33:54;100301.03;;;2.18;66.41
58072;BME280;60383;46.626;18.866;2023-03-05T01:36:21;100297.44;;;2.31;66.14
58072;BME280;60383;46.626;18.866;2023-03-05T01:38:49;100312.25;;;2.77;64.41
58072;BME280;60383;46.626;18.866;2023-03-05T01:41:15;100304.59;;;2.83;63.77
58072;BME280;60383;46.626;18.866;2023-03-05T01:43:44;100300.78;;;2.86;63.68
58072;BME280;60383;46.626;18.866;2023-03-05T01:48:36;100299.28;;;2.56;64.47
58072;BME280;60383;46.626;18.866;2023-03-05T01:51:01;100297.88;;;2.63;64.35
58072;BME280;60383;46.626;18.866;2023-03-05T01:53:28;100293.78;;;2.70;64.39
58072;BME280;60383;46.626;18.866;2023-03-05T01:55:56;100294.31;;;2.50;64.87
58072;BME280;60383;46.626;18.866;2023-03-05T01:58:22;100295.63;;;2.31;64.80
58072;BME280;60383;46.626;18.866;2023-03-05T02:00:51;100285.03;;;2.41;64.97
58072;BME280;60383;46.626;18.866;2023-03-05T02:03:18;100291.50;;;2.51;65.07
58072;BME280;60383;46.626;18.866;2023-03-05T02:05:44;100295.50;;;2.59;64.76
58072;BME280;60383;46.626;18.866;2023-03-05T02:08:14;100287.28;;;2.34;65.25
58072;BME280;60383;46.626;18.866;2023-03-05T02:10:51;100299.31;;;2.43;65.06
58072;BME280;60383;46.626;18.866;2023-03-05T02:13:25;100301.78;;;2.46;65.24
58072;BME280;60383;46.626;18.866;2023-03-05T02:15:53;100298.09;;;2.73;64.78
58072;BME280;60383;46.626;18.866;2023-03-05T02:18:20;100287.59;;;2.68;65.03
58072;BME280;60383;46.626;18.866;2023-03-05T02:20:50;100289.78;;;2.63;65.00
58072;BME280;60383;46.626;18.866;2023-03-05T02:23:18;100297.69;;;2.53;65.19
58072;BME280;60383;46.626;18.866;2023-03-05T02:25:44;100287.81;;;2.14;66.29
58072;BME280;60383;46.626;18.866;2023-03-05T02:28:29;100289.03;;;2.22;66.85
58072;BME280;60383;46.626;18.866;2023-03-05T02:30:56;100281.69;;;2.37;66.46
58072;BME280;60383;46.626;18.866;2023-03-05T02:33:22;100287.94;;;2.64;65.50
58072;BME280;60383;46.626;18.866;2023-03-05T02:35:48;100283.06;;;2.56;65.55
58072;BME280;60383;46.626;18.866;2023-03-05T02:38:15;100290.94;;;2.72;65.45
58072;BME280;60383;46.626;18.866;2023-03-05T02:40:42;100288.59;;;2.16;66.33
58072;BME280;60383;46.626;18.866;2023-03-05T02:43:08;100283.31;;;2.53;65.67
58072;BME280;60383;46.626;18.866;2023-03-05T02:45:34;100277.03;;;2.27;67.04
58072;BME280;60383;46.626;18.866;2023-03-05T02:47:59;100285.25;;;2.25;66.71
58072;BME280;60383;46.626;18.866;2023-03-05T02:50:26;100279.75;;;2.39;66.28
58072;BME280;60383;46.626;18.866;2023-03-05T02:52:52;100290.13;;;2.46;66.46
58072;BME280;60383;46.626;18.866;2023-03-05T02:55:18;100287.19;;;2.23;66.70
58072;BME280;60383;46.626;18.866;2023-03-05T02:57:43;100281.56;;;2.13;67.04
58072;BME280;60383;46.626;18.866;2023-03-05T03:00:09;100285.69;;;2.32;66.87
58072;BME280;60383;46.626;18.866;2023-03-05T03:02:35;100277.22;;;2.23;66.56
58072;BME280;60383;46.626;18.866;2023-03-05T03:05:00;100281.13;;;2.19;67.35
58072;BME280;60383;46.626;18.866;2023-03-05T03:07:26;100284.50;;;2.23;66.73
58072;BME280;60383;46.626;18.866;2023-03-05T03:09:52;100292.56;;;2.10;67.04
58072;BME280;60383;46.626;18.866;2023-03-05T03:12:17;100287.50;;;2.18;67.42
58072;BME280;60383;46.626;18.866;2023-03-05T03:14:43;100284.59;;;2.08;67.56
58072;BME280;60383;46.626;18.866;2023-03-05T03:17:11;100284.28;;;2.13;67.40
58072;BME280;60383;46.626;18.866;2023-03-05T03:19:38;100277.66;;;2.17;67.51
58072;BME280;60383;46.626;18.866;2023-03-05T03:22:06;100279.75;;;2.27;67.24
58072;BME280;60383;46.626;18.866;2023-03-05T03:24:33;100278.44;;;2.19;67.07
58072;BME280;60383;46.626;18.866;2023-03-05T03:26:59;100274.78;;;2.33;66.21
58072;BME280;60383;46.626;18.866;2023-03-05T03:29:25;100274.44;;;2.25;66.47
58072;BME280;60383;46.626;18.866;2023-03-05T03:31:51;100282.88;;;2.20;66.50
58072;BME280;60383;46.626;18.866;2023-03-05T03:34:18;100280.91;;;2.35;66.25
58072;BME280;60383;46.626;18.866;2023-03-05T03:36:44;100278.22;;;2.10;67.13
58072;BME280;60383;46.626;18.866;2023-03-05T03:39:10;100290.22;;;2.44;66.33
58072;BME280;60383;46.626;18.866;2023-03-05T03:41:39;100288.72;;;2.40;65.94
58072;BME280;60383;46.626;18.866;2023-03-05T03:44:05;100288.94;;;2.63;65.92
58072;BME280;60383;46.626;18.866;2023-03-05T03:46:33;100291.75;;;2.48;65.63
58072;BME280;60383;46.626;18.866;2023-03-05T03:48:59;100283.63;;;2.48;65.94
58072;BME280;60383;46.626;18.866;2023-03-05T03:51:25;100282.34;;;2.54;65.95
58072;BME280;60383;46.626;18.866;2023-03-05T03:53:51;100290.84;;;2.48;65.73
58072;BME280;60383;46.626;18.866;2023-03-05T03:56:16;100286.44;;;2.21;66.90
58072;BME280;60383;46.626;18.866;2023-03-05T03:58:41;100287.94;;;2.12;67.35
58072;BME280;60383;46.626;18.866;2023-03-05T04:01:07;100286.19;;;2.11;67.70
58072;BME280;60383;46.626;18.866;2023-03-05T04:03:32;100284.91;;;2.17;67.03
58072;BME280;60383;46.626;18.866;2023-03-05T04:05:58;100293.56;;;2.22;66.51
58072;BME280;60383;46.626;18.866;2023-03-05T04:08:23;100289.00;;;2.10;66.43
58072;BME280;60383;46.626;18.866;2023-03-05T04:10:49;100296.00;;;1.86;67.53
58072;BME280;60383;46.626;18.866;2023-03-05T04:13:14;100292.56;;;1.97;67.65
58072;BME280;60383;46.626;18.866;2023-03-05T04:15:40;100295.03;;;2.00;67.82
58072;BME280;60383;46.626;18.866;2023-03-05T04:18:05;100295.03;;;2.00;67.84
58072;BME280;60383;46.626;18.866;2023-03-05T04:20:31;100287.94;;;2.12;66.95
58072;BME280;60383;46.626;18.866;2023-03-05T04:22:56;100293.78;;;2.19;66.37
58072;BME280;60383;46.626;18.866;2023-03-05T04:25:22;100285.34;;;2.11;66.82
58072;BME280;60383;46.626;18.866;2023-03-05T04:27:47;100282.66;;;2.11;66.44
58072;BME280;60383;46.626;18.866;2023-03-05T04:30:13;100286.63;;;1.92;67.36
58072;BME280;60383;46.626;18.866;2023-03-05T04:32:40;100294.31;;;1.98;67.42
58072;BME280;60383;46.626;18.866;2023-03-05T04:35:05;100288.91;;;1.98;67.12
58072;BME280;60383;46.626;18.866;2023-03-05T04:37:31;100287.91;;;1.99;66.76
58072;BME280;60383;46.626;18.866;2023-03-05T04:39:56;100286.81;;;1.89;67.17
58072;BME280;60383;46.626;18.866;2023-03-05T04:42:22;100288.38;;;1.66;68.20
58072;BME280;60383;46.626;18.866;2023-03-05T04:44:48;100282.03;;;1.80;67.69
58072;BME280;60383;46.626;18.866;2023-03-05T04:47:14;100283.34;;;1.74;67.10
58072;BME280;60383;46.626;18.866;2023-03-05T04:49:40;100280.53;;;1.75;67.00
58072;BME280;60383;46.626;18.866;2023-03-05T04:52:05;100283.84;;;1.66;67.10
58072;BME280;60383;46.626;18.866;2023-03-05T04:54:31;100282.44;;;1.61;67.57
58072;BME280;60383;46.626;18.866;2023-03-05T04:56:57;100279.28;;;1.54;67.82
58072;BME280;60383;46.626;18.866;2023-03-05T04:59:22;100275.56;;;1.42;68.14
58072;BME280;60383;46.626;18.866;2023-03-05T05:01:47;100283.50;;;1.31;69.15
58072;BME280;60383;46.626;18.866;2023-03-05T05:04:13;100280.28;;;1.38;69.29
58072;BME280;60383;46.626;18.866;2023-03-05T05:06:38;100282.56;;;1.32;68.74
58072;BME280;60383;46.626;18.866;2023-03-05T05:09:04;100274.66;;;1.28;68.85
58072;BME280;60383;46.626;18.866;2023-03-05T05:11:30;100276.13;;;1.20;70.07
58072;BME280;60383;46.626;18.866;2023-03-05T05:13:55;100282.88;;;1.13;70.04
58072;BME280;60383;46.626;18.866;2023-03-05T05:16:21;100278.97;;;1.04;69.92
58072;BME280;60383;46.626;18.866;2023-03-05T05:18:46;100284.50;;;0.88;70.32
58072;BME280;60383;46.626;18.866;2023-03-05T05:21:12;100284.28;;;0.91;70.47
58072;BME280;60383;46.626;18.866;2023-03-05T05:23:38;100285.13;;;1.06;71.16
58072;BME280;60383;46.626;18.866;2023-03-05T05:26:06;100289.75;;;1.31;71.29
58072;BME280;60383;46.626;18.866;2023-03-05T05:28:33;100282.75;;;1.28;70.21
58072;BME280;60383;46.626;18.866;2023-03-05T05:31:00;100292.97;;;0.96;70.34
58072;BME280;60383;46.626;18.866;2023-03-05T05:33:25;100294.31;;;1.31;69.72
58072;BME280;60383;46.626;18.866;2023-03-05T05:35:51;100291.72;;;1.29;69.34
58072;BME280;60383;46.626;18.866;2023-03-05T05:38:17;100292.16;;;1.63;68.67
58072;BME280;60383;46.626;18.866;2023-03-05T05:40:43;100299.06;;;1.54;69.05
58072;BME280;60383;46.626;18.866;2023-03-05T05:43:08;100301.28;;;1.75;67.45
58072;BME280;60383;46.626;18.866;2023-03-05T05:45:37;100301.59;;;1.70;68.10
58072;BME280;60383;46.626;18.866;2023-03-05T05:48:02;100302.19;;;1.61;68.91
58072;BME280;60383;46.626;18.866;2023-03-05T05:50:28;100302.50;;;1.56;69.01
58072;BME280;60383;46.626;18.866;2023-03-05T05:52:53;100307.06;;;1.69;69.04
58072;BME280;60383;46.626;18.866;2023-03-05T05:55:19;100309.94;;;1.80;68.20
58072;BME280;60383;46.626;18.866;2023-03-05T05:57:44;100313.53;;;1.94;68.28
58072;BME280;60383;46.626;18.866;2023-03-05T06:00:11;100313.88;;;2.02;67.99
58072;BME280;60383;46.626;18.866;2023-03-05T06:02:39;100317.97;;;2.07;67.37
58072;BME280;60383;46.626;18.866;2023-03-05T06:05:05;100322.09;;;2.13;67.40
58072;BME280;60383;46.626;18.866;2023-03-05T06:07:33;100325.03;;;2.23;67.15
58072;BME280;60383;46.626;18.866;2023-03-05T06:09:58;100322.97;;;2.27;66.86
58072;BME280;60383;46.626;18.866;2023-03-05T06:12:24;100324.28;;;2.34;66.72
58072;BME280;60383;46.626;18.866;2023-03-05T06:14:49;100328.72;;;2.35;66.52
58072;BME280;60383;46.626;18.866;2023-03-05T06:17:15;100325.28;;;2.46;66.64
58072;BME280;60383;46.626;18.866;2023-03-05T06:19:40;100322.56;;;2.46;66.13
58072;BME280;60383;46.626;18.866;2023-03-05T06:22:06;100326.03;;;2.35;66.10
58072;BME280;60383;46.626;18.866;2023-03-05T06:24:31;100327.41;;;2.40;66.41
58072;BME280;60383;46.626;18.866;2023-03-05T06:26:56;100328.59;;;2.36;66.70
58072;BME280;60383;46.626;18.866;2023-03-05T06:29:22;100332.41;;;2.47;66.16
58072;BME280;60383;46.626;18.866;2023-03-05T06:31:47;100332.41;;;2.47;66.36
58072;BME280;60383;46.626;18.866;2023-03-05T06:34:13;100338.47;;;2.50;66.40
58072;BME280;60383;46.626;18.866;2023-03-05T06:36:38;100332.19;;;2.50;66.61
58072;BME280;60383;46.626;18.866;2023-03-05T06:39:04;100336.72;;;2.62;65.79
58072;BME280;60383;46.626;18.866;2023-03-05T06:41:30;100331.75;;;2.69;66.69
58072;BME280;60383;46.626;18.866;2023-03-05T06:43:57;100336.84;;;2.74;66.01
58072;BME280;60383;46.626;18.866;2023-03-05T06:46:26;100335.75;;;2.76;66.43
58072;BME280;60383;46.626;18.866;2023-03-05T06:48:54;100338.13;;;2.81;66.23
58072;BME280;60383;46.626;18.866;2023-03-05T06:51:26;100338.78;;;2.71;66.71
58072;BME280;60383;46.626;18.866;2023-03-05T06:53:53;100330.09;;;2.92;65.41
58072;BME280;60383;46.626;18.866;2023-03-05T06:56:19;100345.44;;;3.04;64.93
58072;BME280;60383;46.626;18.866;2023-03-05T06:58:47;100343.81;;;3.02;65.02
58072;BME280;60383;46.626;18.866;2023-03-05T07:01:14;100339.50;;;3.12;65.18
58072;BME280;60383;46.626;18.866;2023-03-05T07:03:40;100340.41;;;3.24;64.70
58072;BME280;60383;46.626;18.866;2023-03-05T07:06:09;100345.94;;;3.23;65.33
58072;BME280;60383;46.626;18.866;2023-03-05T07:08:36;100339.56;;;3.24;65.25
58072;BME280;60383;46.626;18.866;2023-03-05T07:11:01;100341.16;;;3.39;65.11
58072;BME280;60383;46.626;18.866;2023-03-05T07:13:28;100335.75;;;3.39;64.65
58072;BME280;60383;46.626;18.866;2023-03-05T07:15:54;100340.69;;;3.45;64.50
58072;BME280;60383;46.626;18.866;2023-03-05T07:18:19;100339.53;;;3.61;64.13
58072;BME280;60383;46.626;18.866;2023-03-05T07:20:45;100329.53;;;3.50;64.86
58072;BME280;60383;46.626;18.866;2023-03-05T07:23:10;100331.47;;;3.48;64.77
58072;BME280;60383;46.626;18.866;2023-03-05T07:25:36;100324.63;;;3.55;65.41
58072;BME280;60383;46.626;18.866;2023-03-05T07:28:04;100326.06;;;3.72;64.89
58072;BME280;60383;46.626;18.866;2023-03-05T07:30:31;100335.22;;;3.82;64.61
58072;BME280;60383;46.626;18.866;2023-03-05T07:32:56;100329.69;;;3.84;64.58
58072;BME280;60383;46.626;18.866;2023-03-05T07:35:21;100332.78;;;3.91;64.75
58072;BME280;60383;46.626;18.866;2023-03-05T07:37:49;100326.09;;;3.83;64.55
58072;BME280;60383;46.626;18.866;2023-03-05T07:40:14;100332.56;;;3.94;64.22
58072;BME280;60383;46.626;18.866;2023-03-05T07:42:40;100325.88;;;3.87;64.68
58072;BME280;60383;46.626;18.866;2023-03-05T07:45:06;100325.81;;;3.75;65.43
58072;BME280;60383;46.626;18.866;2023-03-05T07:47:32;100327.63;;;3.88;65.20
58072;BME280;60383;46.626;18.866;2023-03-05T07:49:57;100316.88;;;3.86;65.79
58072;BME280;60383;46.626;18.866;2023-03-05T07:52:23;100315.69;;;3.90;66.14
58072;BME280;60383;46.626;18.866;2023-03-05T07:54:48;100332.81;;;4.02;66.02
58072;BME280;60383;46.626;18.866;2023-03-05T07:57:14;100325.72;;;4.12;65.59
58072;BME280;60383;46.626;18.866;2023-03-05T07:59:40;100335.88;;;4.22;64.37
58072;BME280;60383;46.626;18.866;2023-03-05T08:02:09;100330.94;;;4.27;64.98
58072;BME280;60383;46.626;18.866;2023-03-05T08:04:35;100321.72;;;4.29;65.09
58072;BME280;60383;46.626;18.866;2023-03-05T08:07:01;100323.09;;;4.35;64.54
58072;BME280;60383;46.626;18.866;2023-03-05T08:09:27;100328.25;;;4.38;64.58
58072;BME280;60383;46.626;18.866;2023-03-05T08:11:52;100326.19;;;4.53;64.83
58072;BME280;60383;46.626;18.866;2023-03-05T08:14:18;100323.72;;;4.61;63.92
58072;BME280;60383;46.626;18.866;2023-03-05T08:16:43;100319.19;;;4.73;64.05
58072;BME280;60383;46.626;18.866;2023-03-05T08:19:10;100319.44;;;4.93;63.34
58072;BME280;60383;46.626;18.866;2023-03-05T08:21:36;100317.09;;;4.77;63.91
58072;BME280;60383;46.626;18.866;2023-03-05T08:24:04;100324.84;;;4.93;63.00
58072;BME280;60383;46.626;18.866;2023-03-05T08:26:31;100324.25;;;4.89;62.54
58072;BME280;60383;46.626;18.866;2023-03-05T08:28:57;100320.19;;;4.84;63.58
58072;BME280;60383;46.626;18.866;2023-03-05T08:31:25;100319.78;;;5.11;62.65
58072;BME280;60383;46.626;18.866;2023-03-05T08:33:52;100315.81;;;5.15;62.45
58072;BME280;60383;46.626;18.866;2023-03-05T08:36:18;100319.03;;;5.32;61.72
58072;BME280;60383;46.626;18.866;2023-03-05T08:38:43;100323.09;;;5.37;61.15
58072;BME280;60383;46.626;18.866;2023-03-05T08:41:11;100320.00;;;5.42;61.25
58072;BME280;60383;46.626;18.866;2023-03-05T08:43:37;100318.47;;;5.49;60.29
58072;BME280;60383;46.626;18.866;2023-03-05T08:46:03;100316.28;;;5.43;59.95
58072;BME280;60383;46.626;18.866;2023-03-05T08:48:29;100320.13;;;5.40;60.04
58072;BME280;60383;46.626;18.866;2023-03-05T08:50:56;100323.09;;;5.37;60.76
58072;BME280;60383;46.626;18.866;2023-03-05T08:53:21;100315.53;;;5.52;59.83
58072;BME280;60383;46.626;18.866;2023-03-05T08:55:57;100311.88;;;5.31;60.91
58072;BME280;60383;46.626;18.866;2023-03-05T08:58:23;100313.72;;;5.19;61.03
58072;BME280;60383;46.626;18.866;2023-03-05T09:00:49;100316.06;;;5.35;60.99
58072;BME280;60383;46.626;18.866;2023-03-05T09:03:14;100322.47;;;5.22;60.86
58072;BME280;60383;46.626;18.866;2023-03-05T09:05:40;100316.59;;;5.28;60.71
58072;BME280;60383;46.626;18.866;2023-03-05T09:08:05;100318.78;;;5.23;61.06
58072;BME280;60383;46.626;18.866;2023-03-05T09:10:31;100315.06;;;5.36;61.22
58072;BME280;60383;46.626;18.866;2023-03-05T09:12:56;100322.81;;;5.52;59.63
58072;BME280;60383;46.626;18.866;2023-03-05T09:15:22;100315.06;;;5.36;60.22
58072;BME280;60383;46.626;18.866;2023-03-05T09:17:47;100316.09;;;5.12;61.86
58072;BME280;60383;46.626;18.866;2023-03-05T09:20:13;100320.38;;;5.26;61.68
58072;BME280;60383;46.626;18.866;2023-03-05T09:22:40;100317.75;;;5.47;60.99
58072;BME280;60383;46.626;18.866;2023-03-05T09:25:07;100313.94;;;5.50;60.52
58072;BME280;60383;46.626;18.866;2023-03-05T09:27:34;100310.31;;;5.60;60.61
58072;BME280;60383;46.626;18.866;2023-03-05T09:29:59;100309.16;;;5.74;59.25
58072;BME280;60383;46.626;18.866;2023-03-05T09:32:25;100291.72;;;5.77;59.50
58072;BME280;60383;46.626;18.866;2023-03-05T09:34:50;100308.13;;;5.54;59.90
58072;BME280;60383;46.626;18.866;2023-03-05T09:37:15;100303.47;;;5.78;59.81
58072;BME280;60383;46.626;18.866;2023-03-05T09:39:41;100296.00;;;5.91;59.30
58072;BME280;60383;46.626;18.866;2023-03-05T09:42:21;100281.44;;;5.81;58.94
58072;BME280;60383;46.626;18.866;2023-03-05T09:52:53;100259.97;;;5.78;60.60
58072;BME280;60383;46.626;18.866;2023-03-05T09:56:08;100255.81;;;5.95;60.46
58072;BME280;60383;46.626;18.866;2023-03-05T09:58:18;100259.91;;;6.00;59.59
58072;BME280;60383;46.626;18.866;2023-03-05T10:00:48;100239.47;;;6.06;60.07
58072;BME280;60383;46.626;18.866;2023-03-05T10:06:25;100249.00;;;6.74;57.59
58072;BME280;60383;46.626;18.866;2023-03-05T10:09:05;100243.06;;;6.99;56.98
58072;BME280;60383;46.626;18.866;2023-03-05T10:12:07;100246.69;;;7.10;55.50
58072;BME280;60383;46.626;18.866;2023-03-05T10:14:38;100241.28;;;7.19;55.57
58072;BME280;60383;46.626;18.866;2023-03-05T10:20:13;100234.34;;;7.06;56.50
58072;BME280;60383;46.626;18.866;2023-03-05T10:36:45;100236.84;;;7.87;51.36
58072;BME280;60383;46.626;18.866;2023-03-05T10:42:08;100231.66;;;8.13;50.25
58072;BME280;60383;46.626;18.866;2023-03-05T10:45:12;100228.38;;;8.10;50.44
58072;BME280;60383;46.626;18.866;2023-03-05T10:47:57;100227.97;;;7.65;51.68
58072;BME280;60383;46.626;18.866;2023-03-05T10:50:29;100220.19;;;8.00;51.08
58072;BME280;60383;46.626;18.866;2023-03-05T10:55:45;100208.72;;;7.96;50.97
58072;BME280;60383;46.626;18.866;2023-03-05T10:58:15;100212.13;;;8.18;50.76
58072;BME280;60383;46.626;18.866;2023-03-05T11:03:54;100201.03;;;8.29;49.07
58072;BME280;60383;46.626;18.866;2023-03-05T11:06:38;100191.38;;;7.88;49.85
58072;BME280;60383;46.626;18.866;2023-03-05T11:09:27;100199.38;;;7.99;50.00
58072;BME280;60383;46.626;18.866;2023-03-05T11:12:18;100190.75;;;8.13;49.01
58072;BME280;60383;46.626;18.866;2023-03-05T11:17:38;100175.72;;;7.80;49.75
58072;BME280;60383;46.626;18.866;2023-03-05T11:23:19;100176.13;;;8.05;49.12
58072;BME280;60383;46.626;18.866;2023-03-05T11:25:54;100163.03;;;8.18;49.45
58072;BME280;60383;46.626;18.866;2023-03-05T11:34:20;100149.69;;;8.81;47.15
58072;BME280;60383;46.626;18.866;2023-03-05T11:39:21;100143.50;;;8.60;47.76
58072;BME280;60383;46.626;18.866;2023-03-05T11:41:50;100130.97;;;8.68;47.23
58072;BME280;60383;46.626;18.866;2023-03-05T11:45:02;100133.63;;;8.50;48.50
58072;BME280;60383;46.626;18.866;2023-03-05T11:50:26;100133.91;;;8.46;47.45
58072;BME280;60383;46.626;18.866;2023-03-05T11:52:56;100127.56;;;8.18;48.81
58072;BME280;60383;46.626;18.866;2023-03-05T11:55:44;100125.69;;;8.56;49.37
58072;BME280;60383;46.626;18.866;2023-03-05T12:00:54;100109.22;;;9.12;47.18
58072;BME280;60383;46.626;18.866;2023-03-05T12:03:24;100113.13;;;9.27;44.98
58072;BME280;60383;46.626;18.866;2023-03-05T12:06:31;100105.00;;;9.00;44.60
58072;BME280;60383;46.626;18.866;2023-03-05T12:09:02;100109.69;;;9.07;43.89
58072;BME280;60383;46.626;18.866;2023-03-05T12:11:31;100107.13;;;9.06;44.28
58072;BME280;60383;46.626;18.866;2023-03-05T12:14:23;100106.88;;;8.81;44.64
58072;BME280;60383;46.626;18.866;2023-03-05T12:17:03;100105.41;;;8.59;45.81
58072;BME280;60383;46.626;18.866;2023-03-05T12:19:38;100100.09;;;8.57;45.95
58072;BME280;60383;46.626;18.866;2023-03-05T12:22:20;100088.50;;;8.18;46.73
58072;BME280;60383;46.626;18.866;2023-03-05T12:24:46;100089.56;;;8.35;46.27
58072;BME280;60383;46.626;18.866;2023-03-05T12:27:14;100094.72;;;8.38;46.32
58072;BME280;60383;46.626;18.866;2023-03-05T12:29:45;100085.94;;;8.44;47.08
58072;BME280;60383;46.626;18.866;2023-03-05T12:35:02;100075.97;;;8.25;46.85
58072;BME280;60383;46.626;18.866;2023-03-05T12:47:46;100071.88;;;8.49;45.63
58072;BME280;60383;46.626;18.866;2023-03-05T12:53:13;100071.56;;;8.42;47.44
58072;BME280;60383;46.626;18.866;2023-03-05T13:00:52;100063.00;;;8.65;47.22
58072;BME280;60383;46.626;18.866;2023-03-05T13:03:27;100064.72;;;8.66;45.14
58072;BME280;60383;46.626;18.866;2023-03-05T13:05:56;100056.06;;;8.70;44.47
58072;BME280;60383;46.626;18.866;2023-03-05T13:08:25;100058.16;;;8.58;44.92
58072;BME280;60383;46.626;18.866;2023-03-05T13:10:57;100059.72;;;8.61;44.79
58072;BME280;60383;46.626;18.866;2023-03-05T13:13:28;100045.69;;;8.56;45.16
58072;BME280;60383;46.626;18.866;2023-03-05T13:15:56;100050.13;;;8.57;45.73
58072;BME280;60383;46.626;18.866;2023-03-05T13:18:26;100044.19;;;8.61;44.53
58072;BME280;60383;46.626;18.866;2023-03-05T13:23:27;100043.13;;;8.44;45.47
58072;BME280;60383;46.626;18.866;2023-03-05T13:28:21;100045.78;;;8.36;44.16
58072;BME280;60383;46.626;18.866;2023-03-05T13:33:21;100053.53;;;8.31;44.51
58072;BME280;60383;46.626;18.866;2023-03-05T13:35:48;100039.66;;;8.24;45.40
58072;BME280;60383;46.626;18.866;2023-03-05T13:38:22;100038.88;;;8.32;44.77
58072;BME280;60383;46.626;18.866;2023-03-05T13:43:50;100027.41;;;8.28;44.88
58072;BME280;60383;46.626;18.866;2023-03-05T13:46:24;100032.88;;;8.00;45.25
58072;BME280;60383;46.626;18.866;2023-03-05T13:48:50;100035.16;;;8.05;45.68
58072;BME280;60383;46.626;18.866;2023-03-05T13:51:15;100023.84;;;8.00;45.84
58072;BME280;60383;46.626;18.866;2023-03-05T13:53:41;100024.00;;;7.98;45.79
58072;BME280;60383;46.626;18.866;2023-03-05T13:56:13;100026.72;;;7.98;45.41
58072;BME280;60383;46.626;18.866;2023-03-05T14:01:12;100017.09;;;7.94;45.16
58072;BME280;60383;46.626;18.866;2023-03-05T14:03:38;100016.09;;;7.95;45.38
58072;BME280;60383;46.626;18.866;2023-03-05T14:06:10;100006.63;;;7.99;46.07
58072;BME280;60383;46.626;18.866;2023-03-05T14:08:38;100006.09;;;8.14;45.19
58072;BME280;60383;46.626;18.866;2023-03-05T14:11:15;100006.09;;;8.14;44.84
58072;BME280;60383;46.626;18.866;2023-03-05T14:13:42;100005.25;;;8.13;46.14
58072;BME280;60383;46.626;18.866;2023-03-05T14:16:24;100013.13;;;7.89;45.75
58072;BME280;60383;46.626;18.866;2023-03-05T14:18:55;100007.38;;;7.92;45.43
58072;BME280;60383;46.626;18.866;2023-03-05T14:21:22;99998.75;;;7.96;45.99
58072;BME280;60383;46.626;18.866;2023-03-05T14:23:49;100000.19;;;7.91;46.01
58072;BME280;60383;46.626;18.866;2023-03-05T14:31:31;99999.75;;;7.95;45.93
58072;BME280;60383;46.626;18.866;2023-03-05T14:33:59;99985.56;;;7.92;46.33